createdAt,value
2018-11-10T00:02:22.127Z,98.60
2018-11-10T00:05:04.551Z,98.80
2018-11-10T00:07:45.528Z,98.80
2018-11-10T00:10:27.100Z,98.70
2018-11-10T00:13:08.772Z,98.60
2018-11-10T00:15:50.505Z,98.40
2018-11-10T00:18:32.734Z,98.40
2018-11-10T00:21:13.742Z,98.50
2018-11-10T00:23:55.566Z,98.40
2018-11-10T00:26:37.664Z,98.30
2018-11-10T00:29:19.573Z,98.40
2018-11-10T00:32:02.065Z,98.60
2018-11-10T00:34:43.759Z,98.80
2018-11-10T00:37:25.525Z,98.70
2018-11-10T00:40:07.216Z,99.00
2018-11-10T00:42:48.703Z,98.70
2018-11-10T00:45:30.401Z,98.90
2018-11-10T00:48:11.884Z,98.90
2018-11-10T00:50:53.095Z,98.70
2018-11-10T00:53:35.028Z,98.90
2018-11-10T00:56:16.464Z,99.10
2018-11-10T00:58:57.929Z,99.10
2018-11-10T01:01:39.456Z,99.50
2018-11-10T01:04:21.004Z,99.10
2018-11-10T01:07:03.331Z,99.30
2018-11-10T01:09:44.345Z,99.50
2018-11-10T01:12:25.974Z,99.50
2018-11-10T01:15:08.010Z,99.60
2018-11-10T01:17:49.357Z,99.60
2018-11-10T01:20:31.594Z,99.60
2018-11-10T01:23:12.459Z,99.50
2018-11-10T01:25:53.973Z,99.80
2018-11-10T01:28:35.815Z,99.70
2018-11-10T01:31:17.527Z,99.80
2018-11-10T01:33:59.130Z,99.80
2018-11-10T01:36:40.886Z,99.80
2018-11-10T01:39:22.611Z,99.50
2018-11-10T01:42:04.809Z,98.10
2018-11-10T01:44:45.788Z,98.00
2018-11-10T01:47:27.549Z,97.40
2018-11-10T01:50:09.984Z,97.00
2018-11-10T01:52:51.766Z,96.60
2018-11-10T01:55:33.748Z,96.00
2018-11-10T01:58:15.340Z,96.10
2018-11-10T02:00:56.858Z,95.90
2018-11-10T02:03:37.824Z,95.70
2018-11-10T02:06:19.590Z,95.30
2018-11-10T02:09:01.103Z,95.20
2018-11-10T02:11:42.903Z,94.70
2018-11-10T02:14:24.680Z,94.80
2018-11-10T02:17:06.894Z,94.80
2018-11-10T02:19:48.310Z,94.70
2018-11-10T02:22:30.076Z,94.20
2018-11-10T02:25:12.052Z,94.00
2018-11-10T02:27:54.452Z,93.70
2018-11-10T02:30:35.534Z,93.50
2018-11-10T02:33:17.224Z,93.20
2018-11-10T02:35:59.210Z,93.30
2018-11-10T02:38:40.736Z,92.80
2018-11-10T02:41:22.313Z,92.90
2018-11-10T02:44:03.699Z,92.60
2018-11-10T02:46:45.388Z,92.10
2018-11-10T02:49:26.954Z,91.70
2018-11-10T02:52:08.478Z,91.50
2018-11-10T02:54:50.251Z,91.20
2018-11-10T02:57:31.823Z,90.80
2018-11-10T03:00:13.924Z,90.30
2018-11-10T03:02:55.983Z,89.20
2018-11-10T03:05:37.716Z,88.10
2018-11-10T03:08:18.690Z,89.10
2018-11-10T03:11:00.282Z,88.30
2018-11-10T03:13:41.969Z,87.60
2018-11-10T03:16:23.637Z,88.50
2018-11-10T03:19:06.070Z,87.10
2018-11-10T03:21:48.367Z,87.00
2018-11-10T03:24:29.677Z,87.60
2018-11-10T03:27:11.245Z,88.20
2018-11-10T03:29:53.105Z,86.90
2018-11-10T03:32:35.079Z,86.90
2018-11-10T03:35:16.317Z,87.10
2018-11-10T03:37:58.375Z,86.60
2018-11-10T03:40:39.907Z,87.90
2018-11-10T03:43:21.626Z,88.70
2018-11-10T03:46:03.206Z,88.60
2018-11-10T03:48:46.061Z,89.00
2018-11-10T03:51:27.591Z,88.10
2018-11-10T03:54:09.310Z,88.30
2018-11-10T03:56:50.792Z,87.20
2018-11-10T03:59:33.401Z,87.20
2018-11-10T04:02:15.229Z,88.30
2018-11-10T04:04:56.675Z,88.50
2018-11-10T04:07:38.186Z,88.70
2018-11-10T04:10:19.971Z,87.40
2018-11-10T04:13:01.673Z,87.10
2018-11-10T04:15:43.528Z,86.80
2018-11-10T04:18:25.553Z,86.20
2018-11-10T04:21:06.478Z,85.70
2018-11-10T04:23:48.462Z,87.00
2018-11-10T04:26:30.650Z,87.40
2018-11-10T04:29:11.941Z,88.10
2018-11-10T04:31:53.897Z,88.20
2018-11-10T04:34:34.979Z,87.70
2018-11-10T04:37:16.749Z,87.10
2018-11-10T04:39:58.306Z,87.10
2018-11-10T04:42:40.132Z,87.40
2018-11-10T04:45:21.852Z,87.00
2018-11-10T04:48:04.025Z,87.30
2018-11-10T04:50:45.109Z,87.70
2018-11-10T04:53:27.029Z,86.90
2018-11-10T04:56:08.399Z,86.90
2018-11-10T04:58:50.190Z,87.10
2018-11-10T05:01:32.357Z,88.20
2018-11-10T05:04:13.353Z,88.80
2018-11-10T05:06:54.942Z,88.80
2018-11-10T05:09:36.557Z,89.00
2018-11-10T05:12:18.737Z,89.00
2018-11-10T05:14:59.307Z,88.60
2018-11-10T05:17:40.392Z,89.20
2018-11-10T05:20:22.285Z,88.40
2018-11-10T05:23:03.370Z,89.30
2018-11-10T05:25:45.858Z,89.50
2018-11-10T05:28:27.922Z,90.00
2018-11-10T05:31:10.135Z,90.30
2018-11-10T05:33:51.036Z,90.80
2018-11-10T05:36:32.724Z,90.70
2018-11-10T05:39:14.982Z,90.60
2018-11-10T05:41:56.706Z,90.40
2018-11-10T05:44:37.817Z,90.80
2018-11-10T05:47:19.999Z,90.90
2018-11-10T05:50:01.203Z,91.10
2018-11-10T05:52:42.891Z,91.50
2018-11-10T05:55:24.488Z,91.30
2018-11-10T05:58:06.159Z,90.90
2018-11-10T06:00:48.641Z,90.60
2018-11-10T06:03:30.660Z,90.40
2018-11-10T06:06:12.268Z,90.20
2018-11-10T06:08:53.663Z,89.50
2018-11-10T06:11:35.220Z,89.20
2018-11-10T06:14:17.526Z,89.70
2018-11-10T06:16:58.607Z,90.00
2018-11-10T06:19:40.293Z,89.50
2018-11-10T06:22:22.342Z,89.80
2018-11-10T06:25:03.304Z,90.00
2018-11-10T06:27:44.758Z,90.10
2018-11-10T06:30:26.163Z,90.20
2018-11-10T06:33:07.671Z,90.40
2018-11-10T06:35:49.331Z,90.00
2018-11-10T06:38:30.801Z,89.60
2018-11-10T06:41:13.147Z,90.00
2018-11-10T06:43:55.439Z,90.10
2018-11-10T06:46:36.698Z,90.10
2018-11-10T06:49:19.100Z,90.10
2018-11-10T06:52:00.615Z,90.20
2018-11-10T06:54:42.586Z,90.40
2018-11-10T06:57:23.866Z,90.30
2018-11-10T07:00:05.378Z,90.50
2018-11-10T07:02:47.071Z,90.40
2018-11-10T07:05:28.632Z,90.40
2018-11-10T07:08:10.347Z,90.80
2018-11-10T07:10:51.913Z,90.20
2018-11-10T07:13:33.405Z,90.00
2018-11-10T07:16:15.195Z,89.90
2018-11-10T07:18:56.987Z,89.60
2018-11-10T07:21:38.615Z,89.60
2018-11-10T07:24:20.400Z,88.10
2018-11-10T07:27:01.990Z,89.00
2018-11-10T07:29:43.704Z,87.90
2018-11-10T07:32:25.240Z,87.40
2018-11-10T07:35:06.946Z,85.70
2018-11-10T07:37:48.643Z,82.70
2018-11-10T07:40:30.517Z,79.60
2018-11-10T07:43:12.106Z,78.50
2018-11-10T07:45:54.323Z,78.10
2018-11-10T07:48:36.074Z,75.40
2018-11-10T07:51:18.033Z,72.70
2018-11-10T07:53:59.084Z,67.80
2018-11-10T07:56:40.167Z,65.40
2018-11-10T07:59:21.125Z,61.60
2018-11-10T08:02:02.915Z,59.00
2018-11-10T08:04:44.308Z,57.00
2018-11-10T08:07:25.790Z,56.70
2018-11-10T08:10:07.612Z,54.60
2018-11-10T08:12:48.994Z,54.10
2018-11-10T08:15:30.488Z,52.00
2018-11-10T08:18:12.352Z,51.40
2018-11-10T08:20:54.655Z,50.90
2018-11-10T08:23:35.657Z,49.90
2018-11-10T08:26:18.345Z,47.70
2018-11-10T08:28:59.830Z,47.60
2018-11-10T08:31:41.315Z,45.60
2018-11-10T08:34:22.904Z,42.80
2018-11-10T08:37:04.304Z,43.80
2018-11-10T08:39:45.791Z,46.30
2018-11-10T08:42:27.389Z,48.30
2018-11-10T08:45:10.115Z,47.30
2018-11-10T08:47:51.478Z,47.60
2018-11-10T08:50:32.875Z,46.20
2018-11-10T08:53:14.359Z,44.40
2018-11-10T08:55:56.987Z,42.60
2018-11-10T08:58:38.759Z,42.50
2018-11-10T09:01:20.223Z,40.80
2018-11-10T09:04:02.029Z,43.70
2018-11-10T09:06:43.607Z,43.40
2018-11-10T09:09:25.911Z,41.80
2018-11-10T09:14:35.982Z,40.50
2018-11-10T09:17:17.841Z,39.80
2018-11-10T09:19:59.490Z,39.40
2018-11-10T09:22:41.873Z,40.20
2018-11-10T09:25:23.090Z,43.20
2018-11-10T09:28:04.353Z,45.20
2018-11-10T09:30:45.917Z,45.60
2018-11-10T09:33:27.636Z,45.90
2018-11-10T09:36:09.426Z,46.50
2018-11-10T09:38:51.617Z,46.00
2018-11-10T09:41:32.511Z,45.00
2018-11-10T09:44:13.992Z,46.10
2018-11-10T09:46:55.785Z,45.20
2018-11-10T09:49:37.364Z,42.70
2018-11-10T09:52:19.659Z,42.10
2018-11-10T09:55:01.188Z,39.90
2018-11-10T09:57:42.963Z,38.40
2018-11-10T10:00:24.361Z,38.90
2018-11-10T10:05:34.929Z,39.30
2018-11-10T10:08:17.120Z,38.10
2018-11-10T10:10:58.183Z,36.70
2018-11-10T10:13:40.296Z,38.10
2018-11-10T10:16:22.224Z,37.90
2018-11-10T10:19:03.896Z,38.20
2018-11-10T10:21:45.600Z,39.00
2018-11-10T10:24:27.169Z,39.70
2018-11-10T10:27:08.668Z,38.00
2018-11-10T10:29:50.366Z,39.20
2018-11-10T10:32:32.127Z,40.80
2018-11-10T10:35:14.572Z,41.80
2018-11-10T10:37:55.715Z,41.90
2018-11-10T10:40:37.042Z,40.80
2018-11-10T10:43:18.711Z,42.60
2018-11-10T10:46:00.372Z,43.40
2018-11-10T10:48:42.828Z,44.40
2018-11-10T10:51:24.597Z,46.10
2018-11-10T10:54:06.706Z,48.40
2018-11-10T10:56:47.799Z,52.10
2018-11-10T10:59:29.559Z,54.70
2018-11-10T11:02:16.358Z,56.20
2018-11-10T11:04:59.803Z,56.90
2018-11-10T11:07:41.523Z,58.50
2018-11-10T11:10:22.759Z,59.20
2018-11-10T11:13:04.883Z,60.60
2018-11-10T11:15:46.144Z,61.90
2018-11-10T11:18:27.655Z,62.40
2018-11-10T11:21:09.674Z,63.80
2018-11-10T11:23:50.907Z,63.00
2018-11-10T11:26:32.908Z,65.00
2018-11-10T11:29:13.920Z,66.40
2018-11-10T11:31:55.396Z,64.70
2018-11-10T11:34:37.154Z,65.00
2018-11-10T11:37:18.031Z,65.00
2018-11-10T11:39:59.111Z,65.00
2018-11-10T11:42:40.630Z,64.20
2018-11-10T11:45:22.326Z,61.00
2018-11-10T11:48:03.465Z,63.20
2018-11-10T11:50:45.361Z,63.90
2018-11-10T11:53:26.954Z,64.30
2018-11-10T11:56:07.844Z,64.70
2018-11-10T11:58:49.747Z,66.50
2018-11-10T12:01:31.548Z,66.30
2018-11-10T12:04:13.545Z,65.00
2018-11-10T12:06:55.319Z,66.00
2018-11-10T12:09:37.869Z,63.70
2018-11-10T12:12:18.707Z,62.90
2018-11-10T12:14:59.805Z,63.70
2018-11-10T12:17:42.217Z,65.90
2018-11-10T12:20:23.162Z,67.20
2018-11-10T12:23:04.849Z,66.00
2018-11-10T12:25:46.346Z,65.40
2018-11-10T12:28:28.033Z,67.60
2018-11-10T12:31:10.114Z,68.70
2018-11-10T12:33:51.513Z,68.70
2018-11-10T12:36:33.620Z,71.10
2018-11-10T12:39:14.981Z,71.50
2018-11-10T12:41:56.702Z,72.30
2018-11-10T12:44:37.978Z,71.50
2018-11-10T12:47:20.447Z,71.40
2018-11-10T12:50:01.442Z,71.50
2018-11-10T12:52:43.648Z,71.10
2018-11-10T12:55:26.007Z,71.70
2018-11-10T12:58:06.941Z,72.40
2018-11-10T13:00:48.760Z,72.30
2018-11-10T13:03:30.562Z,72.30
2018-11-10T13:06:12.835Z,72.50
2018-11-10T13:08:54.316Z,72.50
2018-11-10T13:11:36.057Z,72.80
2018-11-10T13:14:17.730Z,73.30
2018-11-10T13:16:59.189Z,73.60
2018-11-10T13:19:40.347Z,74.20
2018-11-10T13:22:22.060Z,74.50
2018-11-10T13:25:04.041Z,74.10
2018-11-10T13:27:46.016Z,74.10
2018-11-10T13:30:27.546Z,74.20
2018-11-10T13:33:09.667Z,74.40
2018-11-10T13:35:51.110Z,74.60
2018-11-10T13:38:32.083Z,75.30
2018-11-10T13:41:13.688Z,75.70
2018-11-10T13:43:55.426Z,76.40
2018-11-10T13:46:37.852Z,76.30
2018-11-10T13:49:19.572Z,73.80
2018-11-10T13:52:00.907Z,67.90
2018-11-10T13:54:42.333Z,68.30
2018-11-10T13:57:23.850Z,67.80
2018-11-10T14:00:05.919Z,68.30
2018-11-10T14:02:47.432Z,65.20
2018-11-10T14:05:29.071Z,60.90
2018-11-10T14:08:10.091Z,58.60
2018-11-10T14:10:51.477Z,56.70
2018-11-10T14:13:33.908Z,53.60
2018-11-10T14:16:14.764Z,54.00
2018-11-10T14:18:55.857Z,54.20
2018-11-10T14:21:37.540Z,53.90
2018-11-10T14:24:19.359Z,53.50
2018-11-10T14:27:01.092Z,55.70
2018-11-10T14:29:42.425Z,57.00
2018-11-10T14:32:24.561Z,62.00
2018-11-10T14:35:05.668Z,65.50
2018-11-10T14:37:47.137Z,69.10
2018-11-10T14:40:28.931Z,71.00
2018-11-10T14:43:10.137Z,71.20
2018-11-10T14:45:52.594Z,73.10
2018-11-10T14:48:33.932Z,73.90
2018-11-10T14:51:15.710Z,73.80
2018-11-10T14:53:57.590Z,77.10
2018-11-10T14:56:39.427Z,77.80
2018-11-10T14:59:20.902Z,79.90
2018-11-10T15:02:02.589Z,80.80
2018-11-10T15:04:44.394Z,81.30
2018-11-10T15:07:26.250Z,82.70
2018-11-10T15:10:08.478Z,84.30
2018-11-10T15:12:50.272Z,85.50
2018-11-10T15:15:31.324Z,86.00
2018-11-10T15:18:13.411Z,87.00
2018-11-10T15:20:55.701Z,88.00
2018-11-10T15:23:37.113Z,88.30
2018-11-10T15:26:18.806Z,90.00
2018-11-10T15:29:01.522Z,90.40
2018-11-10T15:31:42.596Z,90.70
2018-11-10T15:34:24.287Z,91.00
2018-11-10T15:37:06.526Z,91.40
2018-11-10T15:39:48.136Z,91.60
2018-11-10T15:42:29.092Z,91.90
2018-11-10T15:45:11.765Z,91.90
2018-11-10T15:47:53.396Z,92.30
2018-11-10T15:50:34.839Z,92.60
2018-11-10T15:53:15.700Z,92.80
2018-11-10T15:55:57.571Z,92.70
2018-11-10T15:58:39.641Z,93.10
2018-11-10T16:01:20.919Z,93.30
2018-11-10T16:04:03.362Z,93.50
2018-11-10T16:06:44.115Z,93.80
2018-11-10T16:09:26.653Z,94.40
2018-11-10T16:12:08.210Z,94.50
2018-11-10T16:14:50.103Z,95.30
2018-11-10T16:17:31.485Z,95.70
2018-11-10T16:20:17.838Z,95.90
2018-11-10T16:22:58.784Z,96.50
2018-11-10T16:25:40.028Z,97.10
2018-11-10T16:28:23.161Z,97.70
2018-11-10T16:31:04.323Z,98.90
2018-11-10T16:33:45.934Z,98.80
2018-11-10T16:36:28.262Z,99.20
2018-11-10T16:39:11.143Z,99.20
2018-11-10T16:41:52.707Z,99.80
2018-11-10T16:44:34.426Z,99.90
2018-11-10T16:47:17.249Z,99.90
2018-11-10T16:49:59.252Z,99.90
2018-11-10T16:52:42.122Z,99.90
2018-11-10T16:58:11.353Z,99.90
2018-11-10T17:00:52.968Z,99.90
2018-11-10T17:03:34.548Z,99.90
2018-11-10T17:06:15.913Z,99.90
2018-11-10T17:08:57.460Z,99.90
2018-11-10T17:11:38.727Z,99.90
2018-11-10T17:14:19.948Z,99.90
2018-11-10T17:17:02.265Z,99.90
2018-11-10T17:19:43.756Z,99.90
2018-11-10T17:22:27.618Z,99.90
2018-11-10T17:25:10.301Z,99.90
2018-11-10T17:27:52.074Z,99.90
2018-11-10T17:30:33.410Z,99.90
2018-11-10T17:33:15.163Z,99.90
2018-11-10T17:35:58.064Z,99.90
2018-11-10T17:38:39.412Z,99.90
2018-11-10T17:41:20.175Z,99.90
2018-11-10T17:44:02.154Z,99.90
2018-11-10T17:46:43.871Z,99.90
2018-11-10T17:49:25.250Z,99.90
2018-11-10T17:52:07.129Z,99.90
2018-11-10T17:54:48.346Z,99.90
2018-11-10T17:57:29.401Z,99.90
2018-11-10T18:00:11.173Z,99.90
2018-11-10T18:02:52.759Z,99.90
2018-11-10T18:05:34.450Z,99.90
2018-11-10T18:08:16.067Z,99.90
2018-11-10T18:10:57.834Z,99.90
2018-11-10T18:13:39.627Z,99.90
2018-11-10T18:16:21.474Z,99.90
2018-11-10T18:19:03.291Z,99.90
2018-11-10T18:21:44.743Z,99.90
2018-11-10T18:24:26.602Z,99.90
2018-11-10T18:27:08.086Z,99.90
2018-11-10T18:29:49.687Z,99.90
2018-11-10T18:32:31.561Z,99.90
2018-11-10T18:35:13.339Z,99.90
2018-11-10T18:37:55.188Z,99.90
2018-11-10T18:40:37.413Z,99.90
2018-11-10T18:43:18.576Z,99.90
2018-11-10T18:46:00.669Z,99.90
2018-11-10T18:48:42.451Z,99.90
2018-11-10T18:51:24.147Z,99.90
2018-11-10T18:54:05.966Z,99.90
2018-11-10T18:56:47.496Z,99.90
2018-11-10T18:59:29.099Z,99.90
2018-11-10T19:02:10.529Z,99.90
2018-11-10T19:04:52.193Z,99.90
2018-11-10T19:07:33.550Z,99.90
2018-11-10T19:10:16.496Z,99.90
2018-11-10T19:12:58.864Z,99.90
2018-11-10T19:15:40.823Z,99.90
2018-11-10T19:18:22.773Z,99.90
2018-11-10T19:21:05.142Z,99.90
2018-11-10T19:23:46.901Z,99.90
2018-11-10T19:26:28.865Z,99.90
2018-11-10T19:29:11.016Z,99.90
2018-11-10T19:31:52.354Z,99.90
2018-11-10T19:34:34.807Z,99.90
2018-11-10T19:37:16.042Z,99.90
2018-11-10T19:39:58.710Z,99.90
2018-11-10T19:42:41.429Z,99.90
2018-11-10T19:45:23.318Z,99.90
2018-11-10T19:48:04.854Z,99.90
2018-11-10T19:50:47.085Z,99.90
2018-11-10T19:53:28.259Z,99.90
2018-11-10T19:56:10.974Z,99.90
2018-11-10T19:58:52.159Z,99.90
2018-11-10T20:01:33.875Z,99.90
2018-11-10T20:04:15.616Z,99.90
2018-11-10T20:06:57.717Z,99.90
2018-11-10T20:09:40.328Z,99.90
2018-11-10T20:12:22.138Z,99.90
2018-11-10T20:15:04.073Z,99.90
2018-11-10T20:17:46.063Z,99.90
2018-11-10T20:20:27.504Z,99.90
2018-11-10T20:23:10.216Z,99.90
2018-11-10T20:25:51.333Z,99.90
2018-11-10T20:28:33.132Z,99.90
2018-11-10T20:31:15.919Z,99.90
2018-11-10T20:33:57.955Z,99.90
2018-11-10T20:36:40.333Z,99.90
2018-11-10T20:39:21.700Z,99.90
2018-11-10T20:42:03.902Z,99.90
2018-11-10T20:44:46.390Z,99.90
2018-11-10T20:47:28.248Z,99.90
2018-11-10T20:50:09.843Z,99.90
2018-11-10T20:52:51.899Z,99.90
2018-11-10T20:55:34.136Z,99.90
2018-11-10T20:58:15.831Z,99.90
2018-11-10T21:00:57.532Z,99.90
2018-11-10T21:03:40.012Z,99.90
2018-11-10T21:06:20.891Z,99.90
2018-11-10T21:09:03.724Z,99.90
2018-11-10T21:11:46.805Z,99.90
2018-11-10T21:14:27.797Z,99.90
2018-11-10T21:17:09.045Z,99.90
2018-11-10T21:19:50.155Z,99.90
2018-11-10T21:22:31.559Z,99.90
2018-11-10T21:25:13.953Z,99.90
2018-11-10T21:27:55.842Z,99.90
2018-11-10T21:30:36.800Z,99.90
2018-11-10T21:33:18.703Z,99.90
2018-11-10T21:36:00.604Z,99.90
2018-11-10T21:38:41.796Z,99.90
2018-11-10T21:41:22.638Z,99.90
2018-11-10T21:44:04.978Z,99.90
2018-11-10T21:46:46.253Z,99.90
2018-11-10T21:49:28.696Z,99.90
2018-11-10T21:52:10.124Z,99.90
2018-11-10T21:54:52.508Z,99.90
2018-11-10T21:57:33.659Z,99.90
2018-11-10T22:00:16.678Z,99.90
2018-11-10T22:02:58.995Z,99.90
2018-11-10T22:05:40.555Z,99.90
2018-11-10T22:08:21.620Z,99.90
2018-11-10T22:11:03.019Z,99.90
2018-11-10T22:13:44.716Z,99.90
2018-11-10T22:16:26.976Z,99.90
2018-11-10T22:19:08.498Z,99.90
2018-11-10T22:21:50.461Z,99.90
2018-11-10T22:24:32.291Z,99.90
2018-11-10T22:27:14.394Z,99.90
2018-11-10T22:29:56.764Z,99.90
2018-11-10T22:32:38.541Z,99.90
2018-11-10T22:35:19.985Z,99.90
2018-11-10T22:38:01.937Z,99.90
2018-11-10T22:40:43.651Z,99.90
2018-11-10T22:43:26.150Z,99.90
2018-11-10T22:46:07.669Z,99.90
2018-11-10T22:48:49.034Z,99.90
2018-11-10T22:51:31.140Z,99.90
2018-11-10T22:54:12.213Z,99.90
2018-11-10T22:56:53.906Z,99.90
2018-11-10T22:59:36.288Z,99.90
2018-11-10T23:02:18.034Z,99.90
2018-11-10T23:04:59.918Z,99.90
2018-11-10T23:07:41.492Z,99.90
2018-11-10T23:10:23.674Z,99.90
2018-11-10T23:13:06.839Z,99.90
2018-11-10T23:15:47.766Z,99.90
2018-11-10T23:18:29.466Z,99.90
2018-11-10T23:21:11.379Z,99.90
2018-11-10T23:27:00.716Z,99.90
2018-11-10T23:29:42.536Z,99.90
2018-11-10T23:32:24.180Z,99.90
2018-11-10T23:35:06.376Z,99.90
2018-11-10T23:37:47.602Z,99.90
2018-11-10T23:40:29.576Z,99.90
2018-11-10T23:43:11.123Z,99.90
2018-11-10T23:45:52.820Z,99.90
2018-11-10T23:48:33.684Z,99.90
2018-11-10T23:51:15.577Z,99.90
2018-11-10T23:53:57.521Z,99.90
2018-11-10T23:56:38.935Z,99.90
2018-11-10T23:59:20.629Z,99.90
